Time;durP1;ratioP1;P1;durP2;ratioP2;P2;SDS_P1;SDS_P2;PMS_P1;PMS_P2;Temp;Humidity;BMP_temperature;BMP_pressure;BME280_temperature;BME280_humidity;BME280_pressure;Samples;Min_cycle;Max_cycle;Signal;HPM_P1;HPM_P2
2022/07/29 00:01:06;;;;;;;9.38;4.50;;;;;;;23.37;57.03;100290.63;4990973;28;20079;-68
2022/07/29 00:03:31;;;;;;;7.65;4.28;;;;;;;23.38;57.34;100284.09;4990775;28;20413;-67
2022/07/29 00:05:57;;;;;;;6.82;3.65;;;;;;;23.38;57.25;100296.97;4989123;28;20544;-67
2022/07/29 00:08:22;;;;;;;11.18;4.90;;;;;;;23.32;57.17;100279.53;4986931;28;20401;-67
2022/07/29 00:10:48;;;;;;;6.65;4.30;;;;;;;23.38;57.26;100292.31;4990222;28;20097;-67
2022/07/29 00:13:13;;;;;;;9.93;4.50;;;;;;;23.38;57.36;100294.22;4990429;28;20477;-66
2022/07/29 00:15:39;;;;;;;8.65;4.45;;;;;;;23.36;57.14;100294.44;4988952;28;20556;-66
2022/07/29 00:18:05;;;;;;;9.15;4.43;;;;;;;23.40;56.77;100286.63;4988722;28;20535;-66
2022/07/29 00:20:30;;;;;;;10.30;4.28;;;;;;;;;;4988969;28;20026;-68
2022/07/29 00:22:55;;;;;;;8.98;4.55;;;;;;;23.49;55.93;100286.16;4990479;28;20058;-67
2022/07/29 00:25:21;;;;;;;8.40;3.83;;;;;;;23.40;56.07;100254.63;4990323;28;20559;-67
2022/07/29 00:27:46;;;;;;;11.13;4.35;;;;;;;23.56;55.88;100275.16;4990246;28;20500;-67
2022/07/29 00:30:12;;;;;;;10.15;3.88;;;;;;;23.51;55.53;100270.34;4990650;28;20067;-71
2022/07/29 00:32:38;;;;;;;7.03;3.95;;;;;;;23.58;55.46;100273.91;4991138;28;20042;-71
2022/07/29 00:37:48;;;;;;;5.78;4.32;;;;;;;23.66;55.69;100286.47;4990601;28;20436;-67
2022/07/29 00:40:13;;;;;;;10.73;4.22;;;;;;;23.65;55.33;100273.84;4990195;28;20030;-68
2022/07/29 00:42:50;;;;;;;8.55;4.43;;;;;;;23.72;55.30;100283.72;4990015;28;20034;-68
2022/07/29 00:45:17;;;;;;;9.63;4.78;;;;;;;23.63;55.32;100257.63;4990120;28;20117;-68
2022/07/29 00:47:43;;;;;;;7.57;4.72;;;;;;;23.68;55.31;100263.31;4990191;28;20035;-67
2022/07/29 00:50:11;;;;;;;6.90;4.30;;;;;;;23.81;55.07;100265.97;4990283;28;20030;-67
2022/07/29 00:52:38;;;;;;;6.68;4.38;;;;;;;23.82;54.63;100272.25;4990289;28;20034;-66
2022/07/29 00:55:06;;;;;;;6.35;4.00;;;;;;;23.74;54.84;100246.00;4990149;28;20049;-67
2022/07/29 00:57:32;;;;;;;6.05;4.32;;;;;;;23.84;55.05;100267.41;4990085;28;20393;-67
2022/07/29 00:59:57;;;;;;;7.72;4.28;;;;;;;23.87;55.16;100278.78;4989920;28;20568;-68
2022/07/29 01:02:23;;;;;;;7.35;4.28;;;;;;;23.82;55.44;100266.78;4990164;28;20030;-67
2022/07/29 01:04:49;;;;;;;9.18;4.90;;;;;;;23.65;55.89;100255.53;4990199;28;20033;-66
2022/07/29 01:07:15;;;;;;;10.25;4.57;;;;;;;23.68;56.17;100263.31;4990188;28;20466;-67
2022/07/29 01:09:43;;;;;;;7.93;4.70;;;;;;;23.61;56.26;100265.25;4990290;28;20104;-67
2022/07/29 01:12:09;;;;;;;9.82;4.78;;;;;;;23.48;56.84;100259.00;4987519;28;20128;-68
2022/07/29 01:14:36;;;;;;;7.55;4.50;;;;;;;23.47;56.83;100263.63;4989848;28;20129;-67
2022/07/29 01:17:14;;;;;;;6.43;4.30;;;;;;;23.35;57.05;100251.72;4989907;28;20029;-67
2022/07/29 01:19:50;;;;;;;5.68;4.43;;;;;;;23.32;57.13;100254.88;4989981;28;20393;-65
2022/07/29 01:22:34;;;;;;;8.45;4.65;;;;;;;23.30;57.04;100270.66;4990232;28;20365;-67
2022/07/29 01:25:23;;;;;;;6.03;4.05;;;;;;;23.23;57.40;100256.19;4989236;28;20030;-67
2022/07/29 01:28:13;;;;;;;10.27;4.15;;;;;;;23.19;57.55;100256.78;4991666;28;20034;-68
2022/07/29 01:30:41;;;;;;;10.40;4.50;;;;;;;23.04;57.62;100243.38;4993633;28;20034;-68
2022/07/29 01:33:48;;;;;;;7.80;4.28;;;;;;;23.12;57.66;100261.47;4993595;28;20813;-67
2022/07/29 01:35:58;;;;;;;6.32;4.70;;;;;;;23.11;57.41;100252.41;4993355;28;20462;-68
2022/07/29 01:38:27;;;;;;;5.50;4.50;;;;;;;23.15;57.31;100264.59;4992399;28;20742;-67
2022/07/29 01:40:58;;;;;;;4.97;4.47;;;;;;;23.16;57.28;100260.81;4991577;28;20056;-67
2022/07/29 01:43:38;;;;;;;5.50;5.00;;;;;;;23.14;57.08;100251.13;4993647;28;20517;-67
2022/07/29 01:46:12;;;;;;;4.72;4.22;;;;;;;23.21;56.93;100271.94;4993315;28;20104;-67
2022/07/29 01:49:05;;;;;;;6.53;5.05;;;;;;;23.24;56.84;100259.72;4993438;28;20042;-67
2022/07/29 01:51:54;;;;;;;6.88;4.70;;;;;;;23.26;56.80;100253.00;4993342;28;20046;-67
2022/07/29 01:54:30;;;;;;;7.93;4.90;;;;;;;23.27;57.02;100257.41;4993438;28;20030;-67
2022/07/29 01:56:57;;;;;;;9.23;5.00;;;;;;;23.26;57.18;100263.97;4993347;28;20365;-67
2022/07/29 01:59:24;;;;;;;11.13;4.97;;;;;;;23.24;57.40;100260.59;4992168;28;20377;-67
2022/07/29 02:01:53;;;;;;;7.22;4.90;;;;;;;23.21;57.38;100261.00;4993500;28;20026;-71
2022/07/29 02:04:20;;;;;;;6.15;4.80;;;;;;;23.14;57.63;100254.72;4994368;28;20097;-71
2022/07/29 02:06:49;;;;;;;10.20;5.03;;;;;;;23.13;57.56;100263.13;4991661;28;20026;-70
2022/07/29 02:09:17;;;;;;;6.78;4.72;;;;;;;23.07;57.81;100253.91;4994427;28;20044;-70
2022/07/29 02:11:49;;;;;;;9.13;5.10;;;;;;;22.99;57.89;100256.03;4994028;28;20038;-72
2022/07/29 02:14:17;;;;;;;7.70;5.30;;;;;;;22.97;58.36;100256.25;4994104;28;20037;-71
2022/07/29 02:16:45;;;;;;;8.05;5.40;;;;;;;22.91;58.48;100248.91;4994360;28;20022;-71
2022/07/29 02:19:12;;;;;;;7.40;5.57;;;;;;;22.85;58.35;100247.03;4993923;28;20100;-72
2022/07/29 02:21:40;;;;;;;7.50;4.80;;;;;;;22.80;58.96;100252.31;4991925;28;20096;-70
2022/07/29 02:24:08;;;;;;;6.82;5.07;;;;;;;22.80;58.77;100246.84;4994135;28;20101;-70
2022/07/29 02:26:34;;;;;;;13.43;5.45;;;;;;;22.74;59.09;100252.31;4992666;28;20034;-66
2022/07/29 02:29:02;;;;;;;5.25;4.70;;;;;;;22.71;59.02;100250.88;4992632;28;20046;-66
2022/07/29 02:31:31;;;;;;;6.65;5.13;;;;;;;22.72;59.26;100249.81;4992555;28;20034;-67
2022/07/29 02:33:57;;;;;;;8.50;6.13;;;;;;;22.68;59.33;100243.09;4992428;28;20058;-67
2022/07/29 02:36:24;;;;;;;10.75;5.75;;;;;;;22.71;59.77;100241.81;4992307;28;20040;-67
2022/07/29 02:38:51;;;;;;;7.57;5.90;;;;;;;22.81;59.65;100254.00;4992101;28;20030;-67
2022/07/29 02:41:51;;;;;;;12.10;6.35;;;;;;;22.84;59.76;100256.31;4991945;28;20026;-68
2022/07/29 02:44:23;;;;;;;8.50;6.20;;;;;;;22.88;59.75;100254.81;4985809;28;20621;-67
2022/07/29 02:47:01;;;;;;;10.50;6.30;;;;;;;22.77;59.69;100235.50;4992076;28;20034;-67
2022/07/29 02:49:40;;;;;;;6.95;6.25;;;;;;;22.89;59.86;100251.00;4989877;28;20038;-66
2022/07/29 02:52:28;;;;;;;8.68;6.55;;;;;;;22.93;59.82;100259.63;4991967;28;20030;-66
2022/07/29 02:54:59;;;;;;;11.30;6.72;;;;;;;22.92;60.30;100261.53;4991533;28;20037;-67
2022/07/29 02:57:46;;;;;;;9.02;5.97;;;;;;;22.91;60.22;100259.00;4991589;28;20042;-67
2022/07/29 03:00:13;;;;;;;8.48;6.70;;;;;;;22.86;60.25;100251.44;4989344;28;20077;-66
2022/07/29 03:02:43;;;;;;;7.30;6.15;;;;;;;22.84;60.58;100259.03;4991537;28;20057;-66
2022/07/29 03:05:15;;;;;;;7.30;5.68;;;;;;;22.79;60.69;100253.34;4991186;28;20048;-67
2022/07/29 03:07:45;;;;;;;11.48;6.28;;;;;;;22.74;60.62;100255.91;4990284;28;20053;-67
2022/07/29 03:10:12;;;;;;;10.07;6.45;;;;;;;22.61;60.86;100236.81;4991173;28;20042;-67
2022/07/29 03:12:38;;;;;;;9.50;6.68;;;;;;;22.63;61.34;100262.03;4991031;28;20728;-67
2022/07/29 03:15:04;;;;;;;9.15;6.13;;;;;;;22.51;61.36;100252.81;4990932;28;20041;-67
2022/07/29 03:17:31;;;;;;;8.43;6.70;;;;;;;22.52;61.66;100261.84;4991164;28;20038;-66
2022/07/29 03:19:57;;;;;;;10.68;5.97;;;;;;;22.46;61.66;100255.31;4991268;28;20026;-65
2022/07/29 03:22:24;;;;;;;9.45;6.25;;;;;;;22.42;61.97;100255.94;4991243;28;20034;-67
2022/07/29 03:24:49;;;;;;;8.63;6.45;;;;;;;22.37;62.27;100250.28;4991201;28;20397;-67
2022/07/29 03:27:15;;;;;;;8.65;6.50;;;;;;;22.24;62.46;100242.91;4990749;28;20033;-67
2022/07/29 03:29:40;;;;;;;12.75;6.68;;;;;;;22.16;62.43;100234.94;4990279;28;20054;-67
2022/07/29 03:32:06;;;;;;;10.98;6.85;;;;;;;22.25;62.58;100266.47;4989713;28;20030;-66
2022/07/29 03:34:31;;;;;;;11.48;6.75;;;;;;;22.22;62.70;100264.97;4991422;28;20048;-66
2022/07/29 03:36:57;;;;;;;9.52;6.63;;;;;;;22.16;62.72;100248.59;4990103;28;20096;-67
2022/07/29 03:39:27;;;;;;;10.35;6.65;;;;;;;22.21;62.84;100263.31;4991440;28;20105;-67
2022/07/29 03:41:56;;;;;;;10.93;6.78;;;;;;;22.23;62.76;100254.91;4990414;28;20042;-67
2022/07/29 03:44:23;;;;;;;13.82;7.15;;;;;;;22.22;62.62;100253.25;4991478;28;20018;-66
2022/07/29 03:46:51;;;;;;;7.40;6.35;;;;;;;22.25;62.78;100258.28;4990791;28;20030;-66
2022/07/29 03:49:19;;;;;;;9.73;6.47;;;;;;;22.25;62.67;100258.28;4991649;28;20077;-71
2022/07/29 03:51:45;;;;;;;6.93;6.22;;;;;;;22.21;62.97;100254.25;4993040;28;20049;-70
2022/07/29 03:54:11;;;;;;;8.50;6.95;;;;;;;22.20;62.70;100256.19;4993044;28;20052;-70
2022/07/29 03:56:45;;;;;;;9.00;6.57;;;;;;;22.27;62.82;100261.63;4993567;28;20105;-70
2022/07/29 03:59:12;;;;;;;11.63;6.90;;;;;;;22.27;62.90;100264.34;4992788;28;20049;-70
2022/07/29 04:01:39;;;;;;;14.93;7.32;;;;;;;22.27;62.98;100265.22;4992805;28;20026;-71
2022/07/29 04:04:05;;;;;;;16.20;7.45;;;;;;;22.27;63.20;100257.00;4991094;28;20041;-67
2022/07/29 04:06:41;;;;;;;13.85;7.22;;;;;;;22.28;63.31;100263.31;4990766;28;20030;-67
2022/07/29 04:09:07;;;;;;;15.55;7.38;;;;;;;22.32;63.29;100259.09;4990735;28;20390;-66
2022/07/29 04:11:32;;;;;;;13.98;7.63;;;;;;;22.34;63.59;100259.72;4990390;28;20398;-66
2022/07/29 04:13:58;;;;;;;8.90;6.95;;;;;;;22.42;63.17;100267.72;4990760;28;20053;-66
2022/07/29 04:16:23;;;;;;;11.88;6.80;;;;;;;22.50;63.14;100270.25;4992317;28;20113;-70
2022/07/29 04:18:49;;;;;;;13.02;7.57;;;;;;;22.49;63.23;100257.66;4990248;28;20465;-67
2022/07/29 04:21:14;;;;;;;11.02;7.03;;;;;;;22.60;63.10;100256.16;4990616;28;20026;-66
2022/07/29 04:23:40;;;;;;;14.38;6.60;;;;;;;22.67;62.24;100262.44;4990742;28;20466;-67
2022/07/29 04:26:09;;;;;;;13.05;6.68;;;;;;;22.70;62.46;100262.03;4990686;28;20023;-67
2022/07/29 04:28:35;;;;;;;10.98;6.57;;;;;;;22.73;62.56;100262.41;4989417;28;20038;-65
2022/07/29 04:31:00;;;;;;;7.13;6.43;;;;;;;22.84;61.96;100260.91;4990731;28;20130;-68
2022/07/29 04:33:26;;;;;;;12.25;7.25;;;;;;;22.89;62.02;100258.41;4989332;28;20358;-67
2022/07/29 04:35:51;;;;;;;9.90;7.05;;;;;;;23.00;61.79;100266.78;4990747;28;20113;-67
2022/07/29 04:38:17;;;;;;;11.68;7.22;;;;;;;23.12;61.33;100261.47;4990313;28;20033;-67
2022/07/29 04:40:42;;;;;;;9.02;6.60;;;;;;;23.23;60.70;100269.88;4990493;28;20444;-67
2022/07/29 04:43:07;;;;;;;10.90;7.05;;;;;;;23.33;60.53;100267.50;4988742;28;20034;-68
2022/07/29 04:45:33;;;;;;;11.27;6.65;;;;;;;23.46;60.06;100270.16;4988928;28;20045;-67
2022/07/29 04:47:58;;;;;;;9.93;6.90;;;;;;;23.59;59.65;100274.72;4990134;28;20370;-67
2022/07/29 04:50:24;;;;;;;9.68;6.50;;;;;;;23.66;58.96;100270.03;4990404;28;20493;-67
2022/07/29 04:52:49;;;;;;;10.32;6.63;;;;;;;23.61;58.75;100250.72;4988760;28;20041;-67
2022/07/29 04:55:15;;;;;;;11.65;6.40;;;;;;;23.77;58.46;100272.09;4990082;28;20069;-67
2022/07/29 04:57:40;;;;;;;8.85;6.28;;;;;;;23.83;58.29;100268.47;4989498;28;20029;-67
2022/07/29 05:00:07;;;;;;;12.23;6.70;;;;;;;23.89;58.36;100271.16;4990298;28;20054;-71
2022/07/29 05:02:32;;;;;;;7.68;6.38;;;;;;;23.97;57.97;100264.59;4993592;28;20520;-72
2022/07/29 05:04:58;;;;;;;7.65;6.85;;;;;;;24.05;57.93;100270.66;4995320;28;20034;-70
2022/07/29 05:07:23;;;;;;;6.88;6.28;;;;;;;24.13;58.03;100284.09;4994185;28;20033;-71
2022/07/29 05:09:49;;;;;;;9.15;6.45;;;;;;;24.20;57.86;100268.41;4995873;28;20117;-70
2022/07/29 05:12:14;;;;;;;12.05;6.30;;;;;;;24.35;57.56;100279.88;4992995;28;20096;-66
2022/07/29 05:14:40;;;;;;;14.18;6.68;;;;;;;24.35;57.13;100257.94;4992803;28;20038;-66
2022/07/29 05:17:05;;;;;;;10.25;6.65;;;;;;;24.58;56.97;100270.16;4993928;28;20089;-67
2022/07/29 05:19:31;;;;;;;10.57;6.50;;;;;;;24.68;56.46;100265.88;4992483;28;20109;-67
2022/07/29 05:21:57;;;;;;;6.93;6.30;;;;;;;24.86;56.14;100278.78;4991672;28;20026;-66
2022/07/29 05:24:22;;;;;;;10.15;6.55;;;;;;;24.95;55.88;100280.16;4992639;28;20080;-67
2022/07/29 05:26:48;;;;;;;11.88;7.15;;;;;;;24.95;55.53;100261.78;4993099;28;20026;-66
2022/07/29 05:29:13;;;;;;;6.72;6.05;;;;;;;25.09;55.45;100274.28;4993573;28;20121;-67
2022/07/29 05:31:39;;;;;;;10.40;5.95;;;;;;;25.17;55.32;100273.13;4993273;28;20046;-68
2022/07/29 05:34:04;;;;;;;8.40;6.80;;;;;;;25.27;55.11;100279.75;4992675;28;20034;-67
2022/07/29 05:36:29;;;;;;;8.43;6.60;;;;;;;25.35;55.01;100281.38;4993325;28;20037;-68
2022/07/29 05:38:55;;;;;;;8.57;6.40;;;;;;;25.43;54.72;100279.16;4993472;28;20034;-68
2022/07/29 05:41:21;;;;;;;9.48;6.53;;;;;;;25.48;54.74;100284.81;4992974;28;20062;-66
2022/07/29 05:43:46;;;;;;;8.27;6.57;;;;;;;25.37;54.85;100249.88;4993070;28;20041;-67
2022/07/29 05:46:12;;;;;;;8.15;6.38;;;;;;;25.59;54.73;100281.25;4994010;28;20030;-70
2022/07/29 05:48:38;;;;;;;11.00;6.70;;;;;;;25.72;54.53;100289.31;4995003;28;20535;-70
2022/07/29 05:51:04;;;;;;;10.07;6.68;;;;;;;25.90;54.24;100285.66;4994896;28;20022;-70
2022/07/29 05:53:30;;;;;;;9.93;6.47;;;;;;;26.02;53.37;100270.91;4992790;28;20033;-71
2022/07/29 05:55:55;;;;;;;10.82;6.50;;;;;;;26.18;53.42;100280.41;4994934;28;20030;-70
2022/07/29 05:58:21;;;;;;;6.45;5.95;;;;;;;26.31;53.06;100280.19;4995066;28;20030;-71
2022/07/29 06:00:47;;;;;;;6.93;5.80;;;;;;;26.43;52.50;100278.25;4994527;28;20035;-71
2022/07/29 06:03:13;;;;;;;10.48;6.20;;;;;;;26.58;51.82;100286.88;4993753;28;20026;-71
2022/07/29 06:05:38;;;;;;;8.85;5.72;;;;;;;26.70;51.86;100275.91;4994286;28;20042;-71
2022/07/29 06:08:06;;;;;;;6.72;6.03;;;;;;;26.86;51.56;100280.69;4994722;28;20027;-70
2022/07/29 06:10:32;;;;;;;9.85;6.53;;;;;;;27.02;51.45;100277.19;4993433;28;20385;-71
2022/07/29 06:12:58;;;;;;;7.70;6.68;;;;;;;27.18;51.03;100277.25;4993103;28;20109;-71
2022/07/29 06:15:23;;;;;;;6.07;5.47;;;;;;;27.36;50.28;100282.66;4994486;28;20117;-71
2022/07/29 06:17:49;;;;;;;6.25;5.70;;;;;;;27.53;49.96;100275.28;4994899;28;20026;-71
2022/07/29 06:20:14;;;;;;;10.48;6.00;;;;;;;27.68;49.38;100280.25;4994308;28;20026;-72
2022/07/29 06:22:40;;;;;;;7.75;5.90;;;;;;;27.80;48.99;100287.41;4994366;28;20474;-71
2022/07/29 06:25:06;;;;;;;8.48;5.93;;;;;;;27.83;48.84;100281.34;4994450;28;20068;-72
2022/07/29 06:27:31;;;;;;;8.65;5.93;;;;;;;27.97;48.62;100285.53;4994011;28;20038;-71
2022/07/29 06:29:57;;;;;;;9.65;6.30;;;;;;;28.04;48.20;100271.56;4994337;28;20037;-72
2022/07/29 06:32:22;;;;;;;8.20;6.18;;;;;;;28.17;48.56;100277.59;4994489;28;20401;-71
2022/07/29 06:34:48;;;;;;;10.73;5.82;;;;;;;28.30;47.80;100282.78;4993222;28;20117;-72
2022/07/29 06:37:14;;;;;;;7.50;5.88;;;;;;;28.39;47.75;100274.94;4994224;28;20754;-72
2022/07/29 06:39:39;;;;;;;7.50;5.53;;;;;;;28.62;47.91;100287.75;4994054;28;20037;-70
2022/07/29 06:42:05;;;;;;;10.05;6.80;;;;;;;28.78;47.28;100289.63;4990512;28;20026;-72
2022/07/29 06:44:33;;;;;;;13.80;6.18;;;;;;;28.86;47.02;100287.31;4994081;28;20032;-70
2022/07/29 06:46:59;;;;;;;12.80;6.20;;;;;;;28.89;46.52;100284.03;4994275;28;20026;-72
2022/07/29 06:49:26;;;;;;;9.00;5.88;;;;;;;29.02;46.24;100274.53;4991721;28;20402;-70
2022/07/29 06:51:52;;;;;;;8.82;5.40;;;;;;;29.14;46.59;100275.28;4993978;28;20100;-72
2022/07/29 06:54:18;;;;;;;7.93;5.75;;;;;;;29.32;45.88;100286.00;4993422;28;20389;-70
2022/07/29 06:56:43;;;;;;;8.80;5.65;;;;;;;29.41;45.50;100273.41;4993542;28;20030;-70
2022/07/29 06:59:10;;;;;;;7.10;5.88;;;;;;;29.59;45.15;100278.59;4992405;28;20022;-71
2022/07/29 07:01:37;;;;;;;9.60;5.70;;;;;;;29.68;45.10;100274.31;4992639;28;20034;-71
2022/07/29 07:04:03;;;;;;;8.40;6.18;;;;;;;29.77;44.79;100273.59;4990290;28;20041;-72
2022/07/29 07:06:28;;;;;;;6.97;5.30;;;;;;;29.87;44.63;100275.63;4991531;28;20027;-71
2022/07/29 07:08:54;;;;;;;10.70;6.68;;;;;;;29.88;43.91;100264.28;4991830;28;20034;-71
2022/07/29 07:11:20;;;;;;;11.77;5.82;;;;;;;29.99;43.87;100277.09;4991374;28;20043;-73
2022/07/29 07:13:45;;;;;;;8.23;5.53;;;;;;;30.08;43.43;100280.25;4992726;28;20489;-71
2022/07/29 07:16:10;;;;;;;11.65;5.72;;;;;;;30.12;43.60;100273.91;4992903;28;20038;-72
2022/07/29 07:18:36;;;;;;;10.88;5.68;;;;;;;30.13;43.50;100261.78;4992890;28;20034;-72
2022/07/29 07:21:01;;;;;;;8.15;5.75;;;;;;;30.26;43.11;100268.81;4992481;28;20038;-71
2022/07/29 07:23:27;;;;;;;10.45;6.05;;;;;;;30.37;43.27;100278.91;4990979;28;20019;-71
2022/07/29 07:25:53;;;;;;;11.13;5.35;;;;;;;30.46;43.19;100277.28;4990531;28;20026;-71
2022/07/29 07:28:18;;;;;;;13.55;5.53;;;;;;;30.55;42.73;100281.22;4991182;28;20149;-72
2022/07/29 07:30:44;;;;;;;9.50;5.32;;;;;;;30.65;42.29;100277.72;4992061;28;20042;-71
2022/07/29 07:33:10;;;;;;;11.70;5.53;;;;;;;30.74;42.40;100276.97;4992072;28;20041;-71
2022/07/29 07:35:36;;;;;;;7.63;5.05;;;;;;;30.78;42.21;100280.88;4991099;28;20026;-71
2022/07/29 07:38:01;;;;;;;6.25;5.55;;;;;;;30.81;42.25;100272.03;4992599;28;20030;-71
2022/07/29 07:40:27;;;;;;;9.50;5.88;;;;;;;30.88;42.23;100282.88;4992074;28;20028;-66
2022/07/29 07:42:52;;;;;;;9.95;6.15;;;;;;;30.97;41.69;100284.03;4989872;28;20129;-67
2022/07/29 07:45:18;;;;;;;11.35;5.25;;;;;;;30.99;41.58;100282.69;4989611;28;20023;-67
2022/07/29 07:47:43;;;;;;;7.40;6.47;;;;;;;31.04;41.52;100285.47;4990782;28;20112;-67
2022/07/29 07:50:11;;;;;;;8.35;5.57;;;;;;;31.13;41.27;100283.00;4990504;28;20556;-66
2022/07/29 07:52:47;;;;;;;15.07;5.97;;;;;;;31.24;41.45;100280.00;4990845;28;20037;-67
2022/07/29 07:55:13;;;;;;;11.13;6.05;;;;;;;31.10;41.28;100269.69;4990995;28;20065;-67
2022/07/29 07:57:38;;;;;;;6.32;5.50;;;;;;;31.21;41.55;100285.28;4971258;28;20038;-67
2022/07/29 08:00:04;;;;;;;8.82;5.70;;;;;;;31.26;41.49;100280.59;4990789;28;20064;-71
2022/07/29 08:02:30;;;;;;;8.35;6.07;;;;;;;31.29;41.11;100282.84;4991356;28;20030;-71
2022/07/29 08:04:55;;;;;;;7.55;5.75;;;;;;;31.39;41.08;100277.34;4990267;28;20045;-72
2022/07/29 08:07:20;;;;;;;6.13;5.43;;;;;;;31.48;40.95;100277.66;4989282;28;20031;-72
2022/07/29 08:09:46;;;;;;;9.45;5.88;;;;;;;31.54;41.08;100277.41;4990306;28;20062;-72
2022/07/29 08:12:11;;;;;;;7.25;5.22;;;;;;;31.66;40.90;100289.06;4990082;28;20049;-72
2022/07/29 08:14:37;;;;;;;7.78;5.60;;;;;;;31.77;40.95;100295.50;4988911;28;20030;-72
2022/07/29 08:17:02;;;;;;;10.35;5.55;;;;;;;31.89;39.84;100301.66;4990270;28;20034;-72
2022/07/29 08:19:28;;;;;;;6.57;5.60;;;;;;;31.94;39.16;100293.34;4990127;28;20029;-72
2022/07/29 08:21:54;;;;;;;5.97;5.25;;;;;;;31.94;39.07;100276.69;4990218;28;20018;-72
2022/07/29 08:27:04;;;;;;;7.13;5.40;;;;;;;32.13;38.73;100295.31;4990254;28;20033;-72
2022/07/29 08:29:30;;;;;;;5.38;4.88;;;;;;;32.10;38.91;100283.94;4990363;28;20022;-72
2022/07/29 08:31:55;;;;;;;7.00;4.97;;;;;;;32.13;38.52;100286.16;4990764;28;20026;-73
2022/07/29 08:34:21;;;;;;;7.75;5.65;;;;;;;32.21;38.82;100300.31;4990828;28;20073;-72
2022/07/29 08:36:47;;;;;;;10.20;4.95;;;;;;;32.28;38.28;100306.41;4989452;28;20129;-72
2022/07/29 08:39:12;;;;;;;7.45;5.38;;;;;;;32.30;37.91;100300.59;4990601;28;20113;-72
2022/07/29 08:41:38;;;;;;;7.78;4.97;;;;;;;32.34;37.57;100299.78;4991049;28;20065;-73
2022/07/29 08:44:03;;;;;;;6.05;5.43;;;;;;;32.35;37.99;100293.16;4990868;28;20477;-72
2022/07/29 08:46:29;;;;;;;11.88;5.40;;;;;;;32.39;38.09;100288.72;4990770;28;20593;-72
2022/07/29 08:48:55;;;;;;;8.38;5.15;;;;;;;32.31;38.00;100268.97;4989584;28;20030;-73
2022/07/29 08:51:22;;;;;;;5.65;5.07;;;;;;;32.40;37.80;100287.59;4990881;28;20030;-72
2022/07/29 08:53:49;;;;;;;6.88;5.43;;;;;;;32.51;37.70;100286.50;4990882;28;20061;-71
2022/07/29 08:56:17;;;;;;;11.15;5.22;;;;;;;32.56;37.28;100282.84;4986731;28;20085;-72
2022/07/29 08:58:43;;;;;;;10.50;4.57;;;;;;;32.67;36.99;100290.06;4990499;28;20026;-73
2022/07/29 09:01:10;;;;;;;8.40;5.03;;;;;;;32.69;36.50;100285.06;4989908;28;20045;-73
2022/07/29 09:03:39;;;;;;;9.00;4.82;;;;;;;32.75;36.87;100281.16;4988345;28;20038;-73
2022/07/29 09:06:05;;;;;;;7.72;5.10;;;;;;;32.77;36.19;100266.97;4990038;28;20088;-72
2022/07/29 09:08:32;;;;;;;6.10;4.90;;;;;;;32.88;35.95;100272.28;4990225;28;20118;-73
2022/07/29 09:10:59;;;;;;;6.82;5.00;;;;;;;32.93;35.74;100271.44;4990269;28;20109;-73
2022/07/29 09:13:25;;;;;;;11.50;5.05;;;;;;;33.00;35.98;100278.34;4990413;28;20022;-73
2022/07/29 09:15:51;;;;;;;9.45;5.18;;;;;;;33.04;35.82;100281.41;4990068;28;20377;-73
2022/07/29 09:18:45;;;;;;;7.88;4.82;;;;;;;33.02;35.28;100270.59;4990324;28;20029;-73
2022/07/29 09:24:06;;;;;;;12.43;4.35;;;;;;;32.94;34.89;100273.13;4988131;28;20041;-73
2022/07/29 09:26:34;;;;;;;5.80;4.25;;;;;;;32.90;34.57;100263.66;4990118;28;20038;-73
2022/07/29 09:29:00;;;;;;;8.38;4.85;;;;;;;32.91;35.28;100262.56;4990022;28;20038;-73
2022/07/29 09:31:37;;;;;;;8.60;4.30;;;;;;;32.93;35.09;100258.38;4990046;28;20092;-73
2022/07/29 09:34:04;;;;;;;10.15;4.97;;;;;;;32.96;34.72;100260.59;4987919;28;20036;-72
2022/07/29 09:36:30;;;;;;;6.30;4.15;;;;;;;32.92;34.12;100245.59;4990150;28;20026;-72
2022/07/29 09:39:02;;;;;;;6.40;4.22;;;;;;;32.99;33.35;100251.69;4989922;28;20389;-73
2022/07/29 09:41:29;;;;;;;4.33;3.93;;;;;;;33.03;33.33;100251.94;4988823;28;20026;-72
2022/07/29 09:43:58;;;;;;;5.72;3.95;;;;;;;33.11;33.60;100256.94;4990120;28;20268;-68
2022/07/29 09:46:25;;;;;;;8.95;4.30;;;;;;;33.18;33.36;100246.34;4989735;28;20038;-68
2022/07/29 09:49:12;;;;;;;7.10;4.45;;;;;;;33.25;33.19;100253.25;4992218;28;20409;-68
2022/07/29 09:51:38;;;;;;;7.97;4.43;;;;;;;33.28;32.69;100252.69;4993084;28;20556;-68
2022/07/29 09:54:25;;;;;;;6.32;4.38;;;;;;;33.28;32.47;100243.50;4992977;28;20050;-67
2022/07/29 09:56:52;;;;;;;5.65;4.18;;;;;;;33.26;32.90;100240.16;4992884;28;20093;-68
2022/07/29 09:59:20;;;;;;;5.15;4.15;;;;;;;33.30;33.14;100235.72;4991775;28;20026;-68
2022/07/29 10:01:46;;;;;;;6.57;4.07;;;;;;;33.41;32.89;100234.56;4992818;28;20026;-66
2022/07/29 10:04:12;;;;;;;6.25;4.32;;;;;;;33.46;32.90;100226.22;4991388;28;20390;-67
2022/07/29 10:06:58;;;;;;;7.45;4.40;;;;;;;33.51;32.38;100218.66;4992821;28;20041;-67
2022/07/29 10:09:24;;;;;;;7.45;4.75;;;;;;;33.57;32.44;100219.47;4992818;28;20046;-67
2022/07/29 10:12:13;;;;;;;7.85;4.40;;;;;;;33.60;32.17;100221.66;4992602;28;20061;-67
2022/07/29 10:14:39;;;;;;;6.53;4.10;;;;;;;33.61;31.68;100217.75;4992859;28;20393;-67
2022/07/29 10:17:06;;;;;;;6.45;4.18;;;;;;;33.59;30.89;100220.03;4992487;28;20034;-68
2022/07/29 10:19:33;;;;;;;5.75;4.13;;;;;;;33.54;31.33;100212.53;4992689;28;20034;-67
2022/07/29 10:22:00;;;;;;;4.45;3.70;;;;;;;33.50;31.91;100207.81;4992737;28;20663;-66
2022/07/29 10:24:27;;;;;;;4.70;3.97;;;;;;;33.50;31.30;100205.03;4992638;28;20049;-68
2022/07/29 10:26:55;;;;;;;4.28;3.60;;;;;;;33.52;31.22;100202.78;4992283;28;20030;-68
2022/07/29 10:29:21;;;;;;;5.72;3.90;;;;;;;33.47;31.59;100189.75;4992374;28;20716;-67
2022/07/29 10:32:12;;;;;;;7.18;4.28;;;;;;;33.47;32.25;100200.91;4992310;28;20034;-67
2022/07/29 10:35:15;;;;;;;5.25;4.13;;;;;;;33.41;32.03;100203.97;4991703;28;20049;-67
2022/07/29 10:38:14;;;;;;;7.03;4.15;;;;;;;33.35;31.88;100199.53;4992302;28;20188;-68
2022/07/29 10:43:40;;;;;;;6.85;4.00;;;;;;;33.29;32.31;100193.16;4992340;28;20197;-66
2022/07/29 10:46:07;;;;;;;5.13;4.10;;;;;;;33.31;32.61;100195.66;4992122;28;20030;-67
2022/07/29 10:48:32;;;;;;;5.88;3.45;;;;;;;33.23;31.91;100179.56;4990651;28;20038;-67
2022/07/29 10:51:00;;;;;;;6.00;4.03;;;;;;;33.31;32.00;100201.22;4990996;28;20049;-68
2022/07/29 10:53:51;;;;;;;5.32;4.10;;;;;;;33.31;31.46;100182.59;4992193;28;20026;-72
2022/07/29 10:56:25;;;;;;;5.60;3.78;;;;;;;33.35;31.41;100180.06;4990661;28;20069;-72
2022/07/29 10:59:25;;;;;;;8.35;4.30;;;;;;;33.41;31.92;100179.78;4990926;28;20037;-72
2022/07/29 11:01:52;;;;;;;7.82;4.13;;;;;;;33.48;32.26;100177.50;4989722;28;20022;-73
2022/07/29 11:04:43;;;;;;;7.97;4.60;;;;;;;33.54;31.92;100181.09;4992081;28;20026;-73
2022/07/29 11:07:09;;;;;;;6.40;4.68;;;;;;;33.55;32.06;100188.31;4991807;28;20039;-73
2022/07/29 11:09:34;;;;;;;7.65;4.38;;;;;;;33.44;31.45;100176.44;4990731;28;20103;-72
2022/07/29 11:12:00;;;;;;;5.75;4.50;;;;;;;33.48;32.11;100185.84;4992326;28;20053;-72
2022/07/29 11:14:54;;;;;;;6.18;3.80;;;;;;;33.50;31.93;100180.81;4992316;28;20029;-73
2022/07/29 11:17:20;;;;;;;;;;;;;;;33.48;32.35;100174.72;4992642;28;20061;-73
2022/07/29 11:19:45;;;;;;;5.78;4.20;;;;;;;33.56;32.10;100162.16;4992186;28;19968;-73
2022/07/29 11:22:34;;;;;;;5.07;4.28;;;;;;;33.64;32.13;100167.09;4990703;28;20026;-72
2022/07/29 11:25:14;;;;;;;5.55;4.45;;;;;;;33.51;32.40;100145.50;4989421;28;20073;-73
2022/07/29 11:27:40;;;;;;;5.78;4.32;;;;;;;33.68;32.28;100162.63;4989374;28;20441;-73
2022/07/29 11:30:06;;;;;;;8.10;4.65;;;;;;;33.70;32.39;100160.38;4991913;28;20030;-72
2022/07/29 11:32:37;;;;;;;9.27;4.95;;;;;;;33.68;32.63;100157.03;4991487;28;20057;-67
2022/07/29 11:35:23;;;;;;;5.75;4.85;;;;;;;33.72;32.76;100152.59;4991617;28;20109;-67
2022/07/29 11:38:26;;;;;;;5.30;4.72;;;;;;;33.77;32.69;100155.31;4991259;28;20030;-67
2022/07/29 11:41:17;;;;;;;10.15;4.72;;;;;;;33.80;32.49;100152.78;4990937;28;20034;-66
2022/07/29 11:43:51;;;;;;;7.07;4.60;;;;;;;33.74;32.13;100142.81;4991047;28;20105;-67